Sigfox identifier Datetime Temperature Humidity SNR
003867BE 2018-10-09 09:03:40 20.6 38 19.9
003867BE 2018-10-09 07:57:20 20.6 38 19.8
003867BE 2018-10-09 06:51:04 20.6 38 17.5
003867BE 2018-10-09 05:44:49 20.6 38 17.5
003867BE 2018-10-09 04:38:34 20.6 38 17.6
003867BE 2018-10-09 01:19:50 20.6 38 17.6
003867BE 2018-10-09 00:13:39 20.6 38 17.6
003867BE 2018-10-08 23:07:25 20.5 38 17.6
003867BE 2018-10-08 22:01:16 20.6 38 17.6
003867BE 2018-10-08 20:55:09 20.4 38 17.6
003867BE 2018-10-08 19:49:01 20.4 38 17.6
003867BE 2018-10-08 18:42:48 20.4 38 17.7
003867BE 2018-10-08 17:36:37 20.4 38 17.6
003867BE 2018-10-08 16:30:25 20.3 38 17.5
003867BE 2018-10-08 15:24:11 20.3 38 17.5
003867BE 2018-10-08 14:17:57 20.2 38 17.5
003867BE 2018-10-08 13:11:46 20.2 38 17.4
003867BE 2018-10-08 10:59:16 20.3 38 17.4
003867BE 2018-10-08 08:46:54 20.4 39 17.4
003867BE 2018-10-08 06:34:29 20.4 39 17.5
003867BE 2018-10-07 16:14:22 20.6 39 17.6
003867BE 2018-10-07 14:02:06 20.6 39 17.6
003867BE 2018-10-07 08:31:20 20.6 39 12.5
003867BE 2018-10-06 04:55:10 21 39 12.8
003867BE 2018-10-05 06:50:00 20.6 34 12.9
003867BE 2018-10-05 05:43:39 20.6 34 13.1
003867BE 2018-10-05 04:37:21 20.6 34 13
003867BE 2018-10-05 03:31:00 20.6 34 12.8
003867BE 2018-10-05 02:24:48 20.6 34 12.6
003867BE 2018-10-05 01:18:30 20.6 34 12.7
003867BE 2018-10-05 00:12:12 20.6 34 12.6
003867BE 2018-10-04 23:06:00 20.6 34 14.6
003867BE 2018-10-04 21:59:50 20.6 34 16.4
003867BE 2018-10-04 20:53:34 20.6 34 16.3
003867BE 2018-10-04 19:47:22 20.6 34 16.3
003867BE 2018-10-04 18:41:06 20.6 34 16.3
003867BE 2018-10-04 17:34:48 20.5 34 16.2
003867BE 2018-10-04 16:28:29 20.4 34 16.2
003867BE 2018-10-04 15:22:13 20.4 35 16.2
003867BE 2018-10-04 14:15:56 20.4 35 16.4
003867BE 2018-10-04 13:09:40 20.4 35 16.4
003867BE 2018-10-04 10:57:06 20.3 37 16.5
003867BE 2018-10-04 09:50:53 20.2 38 16.7
003867BE 2018-10-04 08:44:40 20.3 38 16.7
003867BE 2018-10-04 07:38:28 20.4 39 16.7
003867BE 2018-10-04 06:32:07 20.4 39 16.8
003867BE 2018-10-04 05:25:54 20.4 40 16.9
003867BE 2018-10-04 04:19:44 20.4 40 17
003867BE 2018-10-04 03:13:29 20.4 40 17.1
003867BE 2018-10-04 02:07:15 20.4 40 17.4
003867BE 2018-10-04 01:01:02 20.4 41 17.3
003867BE 2018-10-03 23:54:48 20.4 41 17.5
003867BE 2018-10-03 22:48:33 20.5 41 17.6
003867BE 2018-10-03 21:42:15 20.5 41 17.8
003867BE 2018-10-03 20:36:00 20.5 42 17.9
003867BE 2018-10-03 19:29:50 20.5 42 18
003867BE 2018-10-03 17:17:21 20.5 42 17.1
003867BE 2018-10-03 16:11:05 20.6 42 15.2
003867BE 2018-10-03 15:04:53 20.6 42 15.4
003867BE 2018-10-03 13:58:33 20.6 42 15.6
003867BE 2018-10-03 12:52:21 20.6 41 15.7
003867BE 2018-10-03 11:46:01 20.6 42 16
003867BE 2018-10-03 08:27:03 20.2 38 16.3
003867BE 2018-10-03 07:20:47 20.2 39 16.6
003867BE 2018-10-03 06:14:29 20.3 40 16.5
003867BE 2018-10-03 05:08:14 20.4 40 16.5
003867BE 2018-10-03 04:02:00 20.4 40 16.6
003867BE 2018-10-03 02:55:41 20.4 40 16.7
003867BE 2018-10-03 01:49:23 20.4 41 17
003867BE 2018-10-03 00:43:03 20.4 41 17.6
003867BE 2018-10-02 23:36:44 20.5 40 17.5
003867BE 2018-10-02 22:30:27 20.5 40 17.7
003867BE 2018-10-02 21:24:09 20.6 40 18.2
003867BE 2018-10-02 20:17:54 20.6 40 17.9
003867BE 2018-10-02 18:05:16 20.7 39 10.1
003867BE 2018-10-02 16:58:57 20.5 54 0